createdAt,value
2023-04-24T00:02:19.894Z,99491.97
2023-04-24T00:04:47.508Z,99497.47
2023-04-24T00:07:15.559Z,99487.94
2023-04-24T00:09:43.148Z,99493.38
2023-04-24T00:12:11.199Z,99484.66
2023-04-24T00:14:39.938Z,99480.38
2023-04-24T00:17:07.281Z,99482.16
2023-04-24T00:19:34.515Z,99483.13
2023-04-24T00:22:01.479Z,99488.53
2023-04-24T00:24:28.900Z,99475.63
2023-04-24T00:26:55.943Z,99481.94
2023-04-24T00:29:23.243Z,99485.56
2023-04-24T00:31:50.767Z,99485.72
2023-04-24T00:34:17.758Z,99480.66
2023-04-24T00:36:45.413Z,99482.63
2023-04-24T00:39:12.499Z,99482.91
2023-04-24T00:41:39.894Z,99479.69
2023-04-24T00:44:08.500Z,99485.25
2023-04-24T00:46:37.345Z,99478.50
2023-04-24T00:49:06.099Z,99491.00
2023-04-24T00:51:34.079Z,99485.94
2023-04-24T00:54:02.444Z,99487.06
2023-04-24T00:56:30.282Z,99486.31
2023-04-24T00:58:57.622Z,99482.69
2023-04-24T01:01:25.422Z,99488.78
2023-04-24T01:03:54.821Z,99481.88
2023-04-24T01:06:23.507Z,99482.78
2023-04-24T01:08:50.891Z,99485.53
2023-04-24T01:11:18.917Z,99487.41
2023-04-24T01:13:46.992Z,99490.16
2023-04-24T01:16:15.936Z,99485.94
2023-04-24T01:18:43.921Z,99479.81
2023-04-24T01:21:15.315Z,99482.44
2023-04-24T01:23:42.539Z,99486.84
2023-04-24T01:26:09.787Z,99486.69
2023-04-24T01:28:37.141Z,99488.19
2023-04-24T01:31:06.641Z,99486.31
2023-04-24T01:33:33.803Z,99484.47
2023-04-24T01:36:02.155Z,99485.13
2023-04-24T01:38:29.518Z,99479.69
2023-04-24T01:40:56.883Z,99475.06
2023-04-24T01:43:25.944Z,99471.28
2023-04-24T01:45:52.959Z,99473.69
2023-04-24T01:48:19.974Z,99465.59
2023-04-24T01:50:47.138Z,99465.41
2023-04-24T01:53:16.366Z,99464.31
2023-04-24T01:55:44.144Z,99459.69
2023-04-24T01:58:13.793Z,99461.38
2023-04-24T02:00:41.629Z,99454.28
2023-04-24T02:03:09.878Z,99457.78
2023-04-24T02:05:36.964Z,99446.25
2023-04-24T02:08:07.266Z,99450.44
2023-04-24T02:10:38.203Z,99447.59
2023-04-24T02:13:06.126Z,99446.56
2023-04-24T02:15:33.660Z,99446.38
2023-04-24T02:18:00.999Z,99445.28
2023-04-24T02:20:28.721Z,99446.94
2023-04-24T02:22:56.239Z,99448.63
2023-04-24T02:25:23.429Z,99439.00
2023-04-24T02:27:51.311Z,99441.63
2023-04-24T02:30:19.436Z,99447.78
2023-04-24T02:32:47.254Z,99439.00
2023-04-24T02:35:15.621Z,99447.78
2023-04-24T02:37:43.622Z,99440.72
2023-04-24T02:40:14.098Z,99446.66
2023-04-24T02:42:42.021Z,99446.53
2023-04-24T02:45:10.279Z,99444.56
2023-04-24T02:47:38.621Z,99441.78
2023-04-24T02:50:07.006Z,99444.38
2023-04-24T02:52:35.899Z,99442.41
2023-04-24T02:55:04.335Z,99444.09
2023-04-24T02:57:33.282Z,99443.16
2023-04-24T03:00:00.840Z,99447.22
2023-04-24T03:02:31.108Z,99439.06
2023-04-24T03:04:58.361Z,99438.88
2023-04-24T03:07:26.462Z,99436.97
2023-04-24T03:09:53.864Z,99444.50
2023-04-24T03:12:21.614Z,99443.97
2023-04-24T03:14:49.540Z,99443.78
2023-04-24T03:17:16.862Z,99451.41
2023-04-24T03:19:45.044Z,99441.75
2023-04-24T03:22:14.211Z,99447.16
2023-04-24T03:24:41.996Z,99446.63
2023-04-24T03:27:10.299Z,99448.03
2023-04-24T03:30:04.295Z,99450.56
2023-04-24T03:32:43.452Z,99449.78
2023-04-24T03:35:14.034Z,99442.75
2023-04-24T03:37:41.697Z,99449.06
2023-04-24T03:40:31.580Z,99451.03
2023-04-24T03:42:59.855Z,99450.47
2023-04-24T03:45:27.539Z,99452.88
2023-04-24T03:47:55.381Z,99447.34
2023-04-24T03:50:22.902Z,99446.00
2023-04-24T03:52:51.224Z,99451.81
2023-04-24T03:55:29.967Z,99456.69
2023-04-24T03:57:57.245Z,99461.56
2023-04-24T04:00:24.235Z,99456.00
2023-04-24T04:03:03.826Z,99456.03
2023-04-24T04:05:31.553Z,99446.66
2023-04-24T04:07:59.321Z,99447.50
2023-04-24T04:10:29.633Z,99447.06
2023-04-24T04:12:56.922Z,99443.97
2023-04-24T04:15:23.829Z,99441.81
2023-04-24T04:17:52.168Z,99444.56
2023-04-24T04:20:20.090Z,99440.59
2023-04-24T04:22:47.644Z,99438.88
2023-04-24T04:25:20.947Z,99431.53
2023-04-24T04:27:52.462Z,99430.53
2023-04-24T04:30:20.123Z,99441.34
2023-04-24T04:32:53.349Z,99430.28
2023-04-24T04:35:23.153Z,99437.22
2023-04-24T04:37:52.712Z,99425.22
2023-04-24T04:40:34.212Z,99428.84
2023-04-24T04:43:05.590Z,99422.63
2023-04-24T04:45:41.404Z,99425.59
2023-04-24T04:48:44.182Z,99426.44
2023-04-24T04:51:11.465Z,99427.06
2023-04-24T04:53:38.817Z,99430.94
2023-04-24T04:56:06.557Z,99428.34
2023-04-24T04:58:51.863Z,99426.53
2023-04-24T05:01:20.231Z,99426.78
2023-04-24T05:03:49.095Z,99430.94
2023-04-24T05:06:18.451Z,99425.03
2023-04-24T05:08:46.976Z,99422.63
2023-04-24T05:11:29.534Z,99429.91
2023-04-24T05:13:57.683Z,99428.72
2023-04-24T05:16:33.830Z,99424.91
2023-04-24T05:19:02.118Z,99424.97
2023-04-24T05:21:34.715Z,99426.91
2023-04-24T05:24:02.253Z,99422.97
2023-04-24T05:26:44.889Z,99427.63
2023-04-24T05:29:14.252Z,99418.78
2023-04-24T05:31:42.918Z,99418.69
2023-04-24T05:34:11.244Z,99411.84
2023-04-24T05:36:42.219Z,99421.19
2023-04-24T05:39:09.814Z,99411.72
2023-04-24T05:41:37.199Z,99417.38
2023-04-24T05:44:04.624Z,99420.84
2023-04-24T05:46:32.748Z,99407.72
2023-04-24T05:49:02.114Z,99411.78
2023-04-24T05:51:30.116Z,99412.50
2023-04-24T05:53:57.100Z,99406.81
2023-04-24T05:56:25.117Z,99404.66
2023-04-24T05:58:52.630Z,99398.19
2023-04-24T06:01:21.060Z,99397.41
2023-04-24T06:03:55.449Z,99400.72
2023-04-24T06:06:23.583Z,99396.13
2023-04-24T06:08:51.412Z,99395.88
2023-04-24T06:11:18.480Z,99397.81
2023-04-24T06:13:46.128Z,99394.34
2023-04-24T06:16:44.937Z,99390.09
2023-04-24T06:19:27.175Z,99391.69
2023-04-24T06:21:55.959Z,99399.31
2023-04-24T06:24:23.593Z,99398.44
2023-04-24T06:26:52.846Z,99398.19
2023-04-24T06:29:20.239Z,99397.31
2023-04-24T06:31:47.700Z,99391.50
2023-04-24T06:34:15.036Z,99390.28
2023-04-24T06:36:43.207Z,99383.63
2023-04-24T06:39:11.213Z,99389.41
2023-04-24T06:41:38.963Z,99382.03
2023-04-24T06:44:06.570Z,99386.66
2023-04-24T06:46:34.108Z,99382.66
2023-04-24T06:49:01.786Z,99381.56
2023-04-24T06:51:29.510Z,99384.38
2023-04-24T06:54:00.165Z,99386.91
2023-04-24T06:56:28.203Z,99385.22
2023-04-24T06:58:55.838Z,99390.22
2023-04-24T07:01:24.062Z,99389.81
2023-04-24T07:03:51.963Z,99398.44
2023-04-24T07:06:22.404Z,99397.38
2023-04-24T07:08:50.025Z,99392.84
2023-04-24T07:11:17.491Z,99392.25
2023-04-24T07:13:45.562Z,99401.66
2023-04-24T07:16:13.252Z,99391.75
2023-04-24T07:18:41.018Z,99396.13
2023-04-24T07:21:09.304Z,99396.88
2023-04-24T07:23:36.569Z,99398.44
2023-04-24T07:26:06.496Z,99391.50
2023-04-24T07:28:33.966Z,99397.13
2023-04-24T07:31:01.619Z,99395.56
2023-04-24T07:33:48.300Z,99393.69
2023-04-24T07:36:20.226Z,99386.81
2023-04-24T07:38:47.536Z,99391.44
2023-04-24T07:41:16.841Z,99388.63
2023-04-24T07:43:44.560Z,99383.50
2023-04-24T07:46:12.365Z,99378.16
2023-04-24T07:48:39.837Z,99374.41
2023-04-24T07:51:07.174Z,99378.63
2023-04-24T07:53:34.284Z,99386.53
2023-04-24T07:56:01.221Z,99382.59
2023-04-24T07:58:28.933Z,99379.94
2023-04-24T08:00:56.074Z,99383.25
2023-04-24T08:03:23.582Z,99389.69
2023-04-24T08:05:52.298Z,99373.41
2023-04-24T08:08:23.257Z,99381.41
2023-04-24T08:10:50.655Z,99368.91
2023-04-24T08:13:18.032Z,99376.38
2023-04-24T08:15:44.853Z,99368.19
2023-04-24T08:18:13.615Z,99363.72
2023-04-24T08:20:40.910Z,99360.00
2023-04-24T08:23:08.117Z,99357.69
2023-04-24T08:25:36.538Z,99361.91
2023-04-24T08:28:05.365Z,99363.97
2023-04-24T08:30:33.137Z,99372.22
2023-04-24T08:33:00.472Z,99359.00
2023-04-24T08:35:28.078Z,99365.31
2023-04-24T08:37:55.020Z,99363.84
2023-04-24T08:40:32.460Z,99375.59
2023-04-24T08:43:01.078Z,99369.91
2023-04-24T08:45:31.947Z,99373.19
2023-04-24T08:47:59.965Z,99377.63
2023-04-24T08:50:28.939Z,99371.31
2023-04-24T08:52:57.116Z,99378.94
2023-04-24T08:55:26.144Z,99378.59
2023-04-24T08:57:54.972Z,99374.38
2023-04-24T09:00:23.114Z,99375.97
2023-04-24T09:02:52.090Z,99375.25
2023-04-24T09:05:20.185Z,99369.75
2023-04-24T09:07:53.918Z,99371.97
2023-04-24T09:10:22.289Z,99372.09
2023-04-24T09:12:53.868Z,99369.22
2023-04-24T09:15:23.827Z,99368.53
2023-04-24T09:17:51.387Z,99367.22
2023-04-24T09:20:18.686Z,99372.06
2023-04-24T09:22:46.620Z,99364.00
2023-04-24T09:25:14.246Z,99368.84
2023-04-24T09:27:46.530Z,99357.91
2023-04-24T09:30:14.768Z,99358.03
2023-04-24T09:32:43.209Z,99351.56
2023-04-24T09:35:10.847Z,99350.56
2023-04-24T09:37:40.575Z,99345.75
2023-04-24T09:40:22.013Z,99340.47
2023-04-24T09:42:55.115Z,99346.59
2023-04-24T09:45:22.322Z,99344.47
2023-04-24T09:47:55.085Z,99340.09
2023-04-24T09:50:22.867Z,99334.75
2023-04-24T09:53:03.060Z,99325.75
2023-04-24T09:55:30.904Z,99326.94
2023-04-24T09:58:01.552Z,99321.63
2023-04-24T10:00:34.149Z,99318.50
2023-04-24T10:03:03.588Z,99312.44
2023-04-24T10:05:39.792Z,99312.84
2023-04-24T10:08:09.556Z,99306.84
2023-04-24T10:10:42.619Z,99301.38
2023-04-24T10:13:14.227Z,99304.31
2023-04-24T10:15:42.398Z,99301.44
2023-04-24T10:18:10.299Z,99294.59
2023-04-24T10:20:39.443Z,99294.88
2023-04-24T10:23:07.280Z,99288.53
2023-04-24T10:25:38.070Z,99288.72
2023-04-24T10:28:08.381Z,99290.63
2023-04-24T10:30:39.799Z,99287.38
2023-04-24T10:33:10.765Z,99285.13
2023-04-24T10:35:45.705Z,99284.91
2023-04-24T10:38:15.536Z,99287.72
2023-04-24T10:40:44.623Z,99289.06
2023-04-24T10:43:12.610Z,99288.16
2023-04-24T10:45:40.052Z,99290.56
2023-04-24T10:48:12.538Z,99287.72
2023-04-24T10:50:49.462Z,99291.00
2023-04-24T10:53:22.070Z,99288.69
2023-04-24T10:55:51.441Z,99293.69
2023-04-24T10:58:23.795Z,99282.19
2023-04-24T11:01:01.576Z,99272.94
2023-04-24T11:03:34.354Z,99256.97
2023-04-24T11:06:09.953Z,99252.06
2023-04-24T11:08:45.196Z,99260.25
2023-04-24T11:11:18.302Z,99251.38
2023-04-24T11:13:58.015Z,99251.28
2023-04-24T11:16:31.078Z,99250.78
2023-04-24T11:19:09.578Z,99252.28
2023-04-24T11:21:44.239Z,99252.47
2023-04-24T11:24:32.060Z,99260.59
2023-04-24T11:27:07.861Z,99271.97
2023-04-24T11:29:57.400Z,99270.09
2023-04-24T11:32:34.839Z,99274.09
2023-04-24T11:35:25.966Z,99266.25
2023-04-24T11:40:28.102Z,99274.47
2023-04-24T11:43:00.768Z,99267.53
2023-04-24T11:45:31.003Z,99269.78
2023-04-24T11:47:58.522Z,99266.13
2023-04-24T11:50:29.106Z,99264.69
2023-04-24T11:52:57.205Z,99266.34
2023-04-24T11:55:29.829Z,99267.50
2023-04-24T11:57:59.753Z,99267.00
2023-04-24T12:00:28.825Z,99262.44
2023-04-24T12:03:13.478Z,99259.44
2023-04-24T12:05:41.806Z,99263.72
2023-04-24T12:08:09.609Z,99269.00
2023-04-24T12:10:37.044Z,99267.75
2023-04-24T12:13:04.559Z,99260.97
2023-04-24T12:15:32.255Z,99265.31
2023-04-24T12:17:59.999Z,99259.72
2023-04-24T12:20:32.897Z,99261.13
2023-04-24T12:23:03.619Z,99268.38
2023-04-24T12:25:32.714Z,99268.38
2023-04-24T12:28:06.316Z,99267.78
2023-04-24T12:30:36.684Z,99266.38
2023-04-24T12:33:04.857Z,99266.25
2023-04-24T12:35:35.080Z,99274.59
2023-04-24T12:38:15.924Z,99262.44
2023-04-24T12:40:44.067Z,99269.19
2023-04-24T12:43:16.603Z,99255.59
2023-04-24T12:45:44.806Z,99253.09
2023-04-24T12:48:12.636Z,99250.22
2023-04-24T12:50:40.307Z,99251.03
2023-04-24T12:53:09.240Z,99242.75
2023-04-24T12:55:37.153Z,99228.81
2023-04-24T12:58:04.567Z,99232.06
2023-04-24T13:00:32.545Z,99228.72
2023-04-24T13:05:48.743Z,99242.88
2023-04-24T13:08:16.417Z,99250.69
2023-04-24T13:10:43.834Z,99239.16
2023-04-24T13:13:11.219Z,99234.28
2023-04-24T13:15:38.179Z,99236.94
2023-04-24T13:18:06.249Z,99248.81
2023-04-24T13:20:33.792Z,99240.19
2023-04-24T13:23:01.330Z,99240.66
2023-04-24T13:25:29.462Z,99236.38
2023-04-24T13:27:56.726Z,99234.44
2023-04-24T13:30:24.387Z,99233.50
2023-04-24T13:32:51.819Z,99230.66
2023-04-24T13:35:19.397Z,99231.25
2023-04-24T13:37:46.509Z,99236.53
2023-04-24T13:40:13.785Z,99234.25
2023-04-24T13:42:41.249Z,99229.50
2023-04-24T13:45:17.816Z,99240.28
2023-04-24T13:47:52.597Z,99240.47
2023-04-24T13:50:21.846Z,99235.09
2023-04-24T13:52:48.789Z,99235.94
2023-04-24T13:55:15.863Z,99242.06
2023-04-24T13:57:43.563Z,99236.50
2023-04-24T14:00:12.463Z,99223.81
2023-04-24T14:02:40.397Z,99237.00
2023-04-24T14:05:07.907Z,99232.50
2023-04-24T14:07:34.977Z,99230.06
2023-04-24T14:10:02.333Z,99227.75
2023-04-24T14:12:30.277Z,99227.75
2023-04-24T14:14:58.591Z,99219.78
2023-04-24T14:17:26.127Z,99220.41
2023-04-24T14:19:57.041Z,99218.25
2023-04-24T14:22:24.601Z,99210.78
2023-04-24T14:24:54.271Z,99205.84
2023-04-24T14:27:22.548Z,99198.06
2023-04-24T14:29:50.091Z,99200.56
2023-04-24T14:32:17.352Z,99192.31
2023-04-24T14:34:44.496Z,99192.19
2023-04-24T14:37:12.518Z,99182.28
2023-04-24T14:39:39.612Z,99177.56
2023-04-24T14:42:07.622Z,99172.06
2023-04-24T14:44:35.133Z,99171.44
2023-04-24T14:47:02.636Z,99171.63
2023-04-24T14:49:31.384Z,99165.28
2023-04-24T14:51:58.617Z,99165.88
2023-04-24T14:54:27.192Z,99161.09
2023-04-24T14:56:56.200Z,99156.56
2023-04-24T14:59:23.630Z,99152.56
2023-04-24T15:02:01.876Z,99157.75
2023-04-24T15:04:36.765Z,99155.22
2023-04-24T15:07:04.041Z,99154.38
2023-04-24T15:09:33.790Z,99154.88
2023-04-24T15:12:03.524Z,99160.06
2023-04-24T15:14:34.312Z,99154.16
2023-04-24T15:17:03.234Z,99151.09
2023-04-24T15:19:33.430Z,99147.69
2023-04-24T15:22:01.238Z,99145.31
2023-04-24T15:24:29.570Z,99148.97
2023-04-24T15:27:00.610Z,99147.94
2023-04-24T15:29:28.675Z,99152.09
2023-04-24T15:31:56.592Z,99148.94
2023-04-24T15:34:23.331Z,99136.69
2023-04-24T15:36:50.336Z,99136.34
2023-04-24T15:39:17.842Z,99138.69
2023-04-24T15:41:45.253Z,99150.84
2023-04-24T15:44:12.501Z,99137.06
2023-04-24T15:46:39.666Z,99136.91
2023-04-24T15:49:07.008Z,99129.94
2023-04-24T15:51:34.506Z,99134.03
2023-04-24T15:54:02.052Z,99132.63
2023-04-24T15:56:31.426Z,99129.13
2023-04-24T15:58:59.476Z,99129.41
2023-04-24T16:01:27.259Z,99127.84
2023-04-24T16:03:55.067Z,99126.97
2023-04-24T16:06:22.398Z,99122.59
2023-04-24T16:08:49.505Z,99124.78
2023-04-24T16:11:17.166Z,99124.03
2023-04-24T16:13:44.243Z,99126.22
2023-04-24T16:16:12.447Z,99128.75
2023-04-24T16:18:39.893Z,99124.44
2023-04-24T16:21:09.953Z,99112.28
2023-04-24T16:23:37.581Z,99118.03
2023-04-24T16:26:06.514Z,99109.47
2023-04-24T16:28:34.023Z,99115.00
2023-04-24T16:31:01.917Z,99118.78
2023-04-24T16:33:30.153Z,99122.44
2023-04-24T16:35:58.248Z,99121.75
2023-04-24T16:38:26.786Z,99128.06
2023-04-24T16:40:55.150Z,99125.56
2023-04-24T16:43:22.563Z,99118.81
2023-04-24T16:45:51.127Z,99119.97
2023-04-24T16:48:21.008Z,99128.41
2023-04-24T16:50:50.414Z,99130.50
2023-04-24T16:53:18.855Z,99132.50
2023-04-24T16:55:46.657Z,99129.06
2023-04-24T16:58:14.874Z,99127.50
2023-04-24T17:00:42.554Z,99131.25
2023-04-24T17:03:12.440Z,99129.69
2023-04-24T17:05:41.736Z,99123.66
2023-04-24T17:08:08.852Z,99119.19
2023-04-24T17:10:36.838Z,99128.91
2023-04-24T17:13:06.023Z,99128.91
2023-04-24T17:15:36.636Z,99129.75
2023-04-24T17:18:06.307Z,99130.63
2023-04-24T17:20:35.069Z,99128.88
2023-04-24T17:23:02.871Z,99136.72
2023-04-24T17:25:30.363Z,99141.03
2023-04-24T17:27:58.767Z,99147.88
2023-04-24T17:30:26.685Z,99150.22
2023-04-24T17:32:53.569Z,99140.34
2023-04-24T17:35:22.801Z,99146.16
2023-04-24T17:37:50.184Z,99153.78
2023-04-24T17:40:17.708Z,99149.09
2023-04-24T17:42:47.390Z,99150.44
2023-04-24T17:45:14.833Z,99147.44
2023-04-24T17:47:42.727Z,99147.97
2023-04-24T17:50:10.454Z,99152.06
2023-04-24T17:52:38.358Z,99155.09
2023-04-24T17:55:06.319Z,99152.97
2023-04-24T17:57:33.672Z,99153.56
2023-04-24T18:00:00.669Z,99157.53
2023-04-24T18:02:27.895Z,99158.00
2023-04-24T18:04:55.853Z,99166.19
2023-04-24T18:07:23.405Z,99166.56
2023-04-24T18:09:50.624Z,99162.47
2023-04-24T18:12:18.228Z,99160.22
2023-04-24T18:14:45.095Z,99168.38
2023-04-24T18:17:12.512Z,99160.69
2023-04-24T18:19:39.561Z,99159.19
2023-04-24T18:22:08.556Z,99162.03
2023-04-24T18:24:36.282Z,99156.25
2023-04-24T18:27:04.223Z,99160.22
2023-04-24T18:29:31.786Z,99167.59
2023-04-24T18:31:59.054Z,99161.91
2023-04-24T18:34:26.596Z,99164.78
2023-04-24T18:36:54.696Z,99163.13
2023-04-24T18:39:23.087Z,99167.72
2023-04-24T18:41:50.746Z,99167.09
2023-04-24T18:44:18.822Z,99173.50
2023-04-24T18:46:45.870Z,99172.19
2023-04-24T18:49:13.289Z,99179.41
2023-04-24T18:51:53.182Z,99175.25
2023-04-24T18:54:21.637Z,99179.84
2023-04-24T18:56:48.902Z,99174.50
2023-04-24T18:59:17.341Z,99170.91
2023-04-24T19:01:44.747Z,99172.63
2023-04-24T19:04:12.780Z,99171.78
2023-04-24T19:06:41.250Z,99170.69
2023-04-24T19:09:08.468Z,99173.94
2023-04-24T19:11:37.049Z,99170.25
2023-04-24T19:14:04.645Z,99173.59
2023-04-24T19:16:32.581Z,99165.44
2023-04-24T19:18:59.920Z,99169.59
2023-04-24T19:21:28.454Z,99171.22
2023-04-24T19:23:57.094Z,99170.91
2023-04-24T19:26:26.057Z,99167.91
2023-04-24T19:28:57.871Z,99169.63
2023-04-24T19:31:25.663Z,99165.88
2023-04-24T19:33:53.067Z,99163.69
2023-04-24T19:36:20.449Z,99166.13
2023-04-24T19:38:48.010Z,99158.03
2023-04-24T19:41:15.308Z,99158.66
2023-04-24T19:43:42.344Z,99151.66
2023-04-24T19:46:10.005Z,99152.81
2023-04-24T19:48:37.108Z,99150.47
2023-04-24T19:51:05.019Z,99149.19
2023-04-24T19:53:33.497Z,99143.59
2023-04-24T19:56:00.906Z,99138.75
2023-04-24T19:58:30.708Z,99148.25
2023-04-24T20:00:58.532Z,99148.00
2023-04-24T20:03:33.532Z,99150.59
2023-04-24T20:06:01.658Z,99143.25
2023-04-24T20:08:28.651Z,99144.09
2023-04-24T20:10:58.201Z,99147.69
2023-04-24T20:13:28.190Z,99146.97
2023-04-24T20:15:55.951Z,99139.47
2023-04-24T20:18:23.287Z,99142.44
2023-04-24T20:20:54.227Z,99136.84
2023-04-24T20:23:21.478Z,99138.22
2023-04-24T20:25:50.488Z,99136.78
2023-04-24T20:28:18.634Z,99134.44
2023-04-24T20:30:46.165Z,99135.69
2023-04-24T20:33:13.424Z,99138.69
2023-04-24T20:35:40.897Z,99143.41
2023-04-24T20:38:11.010Z,99140.28
2023-04-24T20:40:50.136Z,99145.81
2023-04-24T20:43:29.137Z,99139.84
2023-04-24T20:45:58.444Z,99141.72
2023-04-24T20:48:26.979Z,99146.31
2023-04-24T20:51:00.046Z,99140.06
2023-04-24T20:53:27.397Z,99138.53
2023-04-24T20:55:54.748Z,99138.66
2023-04-24T20:58:23.169Z,99139.75
2023-04-24T21:00:51.383Z,99137.25
2023-04-24T21:03:18.707Z,99144.34
2023-04-24T21:05:55.216Z,99134.53
2023-04-24T21:08:22.531Z,99131.19
2023-04-24T21:10:49.910Z,99138.34
2023-04-24T21:13:17.202Z,99133.22
2023-04-24T21:15:44.218Z,99127.25
2023-04-24T21:18:11.260Z,99133.50
2023-04-24T21:20:38.356Z,99131.88
2023-04-24T21:23:05.442Z,99128.38
2023-04-24T21:25:33.004Z,99127.59
2023-04-24T21:28:00.933Z,99125.97
2023-04-24T21:30:28.175Z,99119.84
2023-04-24T21:32:58.415Z,99126.03
2023-04-24T21:35:28.408Z,99120.91
2023-04-24T21:37:55.794Z,99116.66
2023-04-24T21:40:23.139Z,99115.75
2023-04-24T21:42:52.144Z,99113.31
2023-04-24T21:45:19.680Z,99117.84
2023-04-24T21:47:46.965Z,99120.72
2023-04-24T21:50:14.509Z,99116.47
2023-04-24T21:52:41.797Z,99116.59
2023-04-24T21:55:09.308Z,99111.41
2023-04-24T21:57:36.243Z,99109.53
2023-04-24T22:00:03.657Z,99108.75
2023-04-24T22:02:32.287Z,99109.81
2023-04-24T22:05:03.513Z,99115.16
2023-04-24T22:07:31.082Z,99113.56
2023-04-24T22:09:58.513Z,99109.19
2023-04-24T22:12:25.644Z,99118.13
2023-04-24T22:14:52.843Z,99115.56
2023-04-24T22:17:19.950Z,99108.78
2023-04-24T22:19:47.462Z,99115.84
2023-04-24T22:22:14.614Z,99107.38
2023-04-24T22:24:42.104Z,99114.41
2023-04-24T22:27:09.444Z,99108.56
2023-04-24T22:29:36.776Z,99106.13
2023-04-24T22:32:04.225Z,99108.22
2023-04-24T22:34:31.672Z,99102.38
2023-04-24T22:36:59.201Z,99100.84
2023-04-24T22:39:26.451Z,99109.00
2023-04-24T22:41:53.965Z,99105.75
2023-04-24T22:44:21.831Z,99100.81
2023-04-24T22:46:49.334Z,99096.03
2023-04-24T22:49:16.603Z,99087.63
2023-04-24T22:51:44.279Z,99085.38
2023-04-24T22:54:11.635Z,99090.91
2023-04-24T22:56:41.820Z,99085.72
2023-04-24T22:59:09.256Z,99085.06
2023-04-24T23:01:36.584Z,99084.41
2023-04-24T23:04:03.707Z,99084.56
2023-04-24T23:06:31.177Z,99076.78
2023-04-24T23:08:59.937Z,99079.59
2023-04-24T23:11:27.957Z,99070.03
2023-04-24T23:13:55.208Z,99076.44
2023-04-24T23:16:23.243Z,99069.72
2023-04-24T23:18:50.171Z,99061.28
2023-04-24T23:21:17.641Z,99065.06
2023-04-24T23:23:44.988Z,99057.34
2023-04-24T23:26:12.117Z,99057.66
2023-04-24T23:28:40.742Z,99060.44
2023-04-24T23:31:11.008Z,99060.63
2023-04-24T23:33:38.540Z,99068.69
2023-04-24T23:36:06.640Z,99064.63
2023-04-24T23:38:43.232Z,99059.66
2023-04-24T23:41:16.741Z,99063.31
2023-04-24T23:43:43.950Z,99054.94
2023-04-24T23:46:11.594Z,99048.06
2023-04-24T23:48:38.779Z,99052.66
2023-04-24T23:51:06.230Z,99055.34
2023-04-24T23:53:33.445Z,99049.38
2023-04-24T23:56:00.605Z,99056.53
2023-04-24T23:58:27.633Z,99045.28
